Time;durP1;ratioP1;P1;durP2;ratioP2;P2;SDS_P1;SDS_P2;PMS_P1;PMS_P2;Temp;Humidity;BMP_temperature;BMP_pressure;BME280_temperature;BME280_humidity;BME280_pressure;Samples;Min_cycle;Max_cycle;Signal;HPM_P1;HPM_P2
2024/01/11 00:01:11;;;;;;;30.03;17.53;;;;;;;;;;5025642;28;20450;-86
2024/01/11 00:03:41;;;;;;;26.90;16.90;;;;;;;;;;5019821;28;20982;-86
2024/01/11 00:06:08;;;;;;;26.37;16.17;;;;;;;;;;5020545;28;20539;-88
2024/01/11 00:08:39;;;;;;;24.43;15.60;;;;;;;;;;5019867;28;20485;-87
2024/01/11 00:11:06;;;;;;;24.70;15.20;;;;;;;;;;5018865;28;20454;-86
2024/01/11 00:13:33;;;;;;;22.50;14.83;;;;;;;;;;5019853;28;20451;-84
2024/01/11 00:16:00;;;;;;;24.83;16.40;;;;;;;;;;5030818;28;20445;-86
2024/01/11 00:18:28;;;;;;;27.60;15.70;;;;;;;;;;5033790;28;20539;-85
2024/01/11 00:20:55;;;;;;;24.23;15.43;;;;;;;;;;5033434;28;20528;-86
2024/01/11 00:23:23;;;;;;;22.47;13.80;;;;;;;;;;5022310;28;20453;-85
2024/01/11 00:25:50;;;;;;;25.03;15.97;;;;;;;;;;5019822;28;20457;-85
2024/01/11 00:28:17;;;;;;;23.40;16.33;;;;;;;;;;5016337;28;20533;-85
2024/01/11 00:30:44;;;;;;;23.70;15.40;;;;;;;;;;5023643;28;22277;-86
2024/01/11 00:33:12;;;;;;;23.73;16.27;;;;;;;;;;5015455;28;21227;-87
2024/01/11 00:35:39;;;;;;;25.07;17.00;;;;;;;;;;5005484;28;20463;-85
2024/01/11 00:38:06;;;;;;;25.73;15.70;;;;;;;;;;5012678;28;20486;-86
2024/01/11 00:40:33;;;;;;;31.70;14.83;;;;;;;;;;5014203;28;20449;-87
2024/01/11 00:43:01;;;;;;;25.37;15.70;;;;;;;;;;5016129;28;20617;-87
2024/01/11 00:45:28;;;;;;;23.53;14.80;;;;;;;;;;5013654;28;20539;-87
2024/01/11 00:47:55;;;;;;;24.07;15.97;;;;;;;;;;5013652;28;20917;-87
2024/01/11 00:50:23;;;;;;;29.07;15.73;;;;;;;;;;5010764;28;20465;-87
2024/01/11 00:52:50;;;;;;;23.50;14.77;;;;;;;;;;5016830;28;20456;-87
2024/01/11 00:55:18;;;;;;;26.87;15.00;;;;;;;;;;5013911;28;20466;-87
2024/01/11 00:57:45;;;;;;;19.57;13.77;;;;;;;;;;5014839;28;20484;-87
2024/01/11 01:00:17;;;;;;;24.23;14.97;;;;;;;;;;5015448;28;20457;-84
2024/01/11 01:02:44;;;;;;;22.77;14.67;;;;;;;;;;5015411;28;20484;-84
2024/01/11 01:05:12;;;;;;;24.93;15.07;;;;;;;;;;5011784;28;21015;-85
2024/01/11 01:07:39;;;;;;;21.27;14.20;;;;;;;;;;5019478;28;20488;-84
2024/01/11 01:10:08;;;;;;;27.23;15.00;;;;;;;;;;5014587;28;21384;-86
2024/01/11 01:12:35;;;;;;;25.60;14.97;;;;;;;;;;5014267;28;20533;-86
2024/01/11 01:15:03;;;;;;;23.97;15.50;;;;;;;;;;5016313;28;20449;-83
2024/01/11 01:17:30;;;;;;;27.70;17.10;;;;;;;;;;5021226;28;21075;-84
2024/01/11 01:19:57;;;;;;;25.90;16.40;;;;;;;;;;5017330;28;20954;-86
2024/01/11 01:22:25;;;;;;;23.67;15.17;;;;;;;;;;5016077;28;20567;-87
2024/01/11 01:24:52;;;;;;;23.07;15.37;;;;;;;;;;5021653;28;20460;-88
2024/01/11 01:27:19;;;;;;;25.80;14.70;;;;;;;;;;5030727;28;21109;-87
2024/01/11 01:29:46;;;;;;;29.93;16.40;;;;;;;;;;5022582;28;20457;-86
2024/01/11 01:32:14;;;;;;;23.70;14.53;;;;;;;;;;5023734;28;20477;-85
2024/01/11 01:34:41;;;;;;;22.03;15.50;;;;;;;;;;5015105;28;20482;-85
2024/01/11 01:37:10;;;;;;;24.43;16.30;;;;;;;;;;5031863;28;21151;-87
2024/01/11 01:39:38;;;;;;;22.73;15.30;;;;;;;;;;5022128;28;20460;-88
2024/01/11 01:42:06;;;;;;;20.60;15.13;;;;;;;;;;5022335;28;20441;-86
2024/01/11 01:44:34;;;;;;;25.87;16.60;;;;;;;;;;5027028;28;20505;-84
2024/01/11 01:47:03;;;;;;;24.40;16.20;;;;;;;;;;5017925;28;20545;-85
2024/01/11 01:49:30;;;;;;;26.87;15.90;;;;;;;;;;5017846;28;20452;-87
2024/01/11 01:51:58;;;;;;;28.83;17.00;;;;;;;;;;5017109;28;20795;-85
2024/01/11 01:54:26;;;;;;;21.10;15.20;;;;;;;;;;5023408;28;21732;-88
2024/01/11 01:56:54;;;;;;;27.97;16.10;;;;;;;;;;5029906;28;20449;-86
2024/01/11 01:59:21;;;;;;;22.57;15.67;;;;;;;;;;5028429;28;20508;-86
2024/01/11 02:01:49;;;;;;;30.87;17.00;;;;;;;;;;5020553;28;20458;-86
2024/01/11 02:04:16;;;;;;;26.50;16.40;;;;;;;;;;5020584;28;21109;-87
2024/01/11 02:06:47;;;;;;;27.50;16.63;;;;;;;;;;5019026;28;20458;-86
2024/01/11 02:09:15;;;;;;;27.73;15.23;;;;;;;;;;5018787;28;20492;-84
2024/01/11 02:11:42;;;;;;;26.63;17.17;;;;;;;;;;5021300;28;21071;-85
2024/01/11 02:14:10;;;;;;;27.30;15.77;;;;;;;;;;5029334;28;20458;-87
2024/01/11 02:16:38;;;;;;;30.97;17.37;;;;;;;;;;5028227;28;20475;-87
2024/01/11 02:19:07;;;;;;;30.50;15.63;;;;;;;;;;5033546;28;20500;-85
2024/01/11 02:21:35;;;;;;;28.17;16.00;;;;;;;;;;5030709;28;20463;-86
2024/01/11 02:24:05;;;;;;;30.20;16.97;;;;;;;;;;5029810;28;20454;-88
2024/01/11 02:26:33;;;;;;;33.13;18.07;;;;;;;;;;5026408;28;20454;-86
2024/01/11 02:29:02;;;;;;;27.63;17.60;;;;;;;;;;5027325;28;20596;-86
2024/01/11 02:31:30;;;;;;;24.20;15.77;;;;;;;;;;5026121;28;20454;-86
2024/01/11 02:33:59;;;;;;;26.80;14.77;;;;;;;;;;5024192;28;20450;-86
2024/01/11 02:36:26;;;;;;;36.80;17.23;;;;;;;;;;5024597;28;20566;-86
2024/01/11 02:38:56;;;;;;;24.60;14.77;;;;;;;;;;5026391;28;20478;-86
2024/01/11 02:41:24;;;;;;;28.27;17.80;;;;;;;;;;5028666;28;20634;-87
2024/01/11 02:43:53;;;;;;;27.50;15.90;;;;;;;;;;5031949;28;20516;-83
2024/01/11 02:46:21;;;;;;;30.03;17.70;;;;;;;;;;5026105;28;20515;-86
2024/01/11 02:48:48;;;;;;;27.47;16.73;;;;;;;;;;5023762;28;20494;-87
2024/01/11 02:51:16;;;;;;;28.70;16.60;;;;;;;;;;5030469;28;21025;-87
2024/01/11 02:53:43;;;;;;;26.90;16.43;;;;;;;;;;5030910;28;20526;-84
2024/01/11 02:56:10;;;;;;;30.17;17.20;;;;;;;;;;5029404;28;20531;-85
2024/01/11 02:58:37;;;;;;;30.57;18.57;;;;;;;;;;5028082;28;20490;-86
2024/01/11 03:01:07;;;;;;;23.50;15.53;;;;;;;;;;5022305;28;20524;-86
2024/01/11 03:03:35;;;;;;;25.03;15.40;;;;;;;;;;5022880;28;20462;-86
2024/01/11 03:06:03;;;;;;;27.10;18.03;;;;;;;;;;5024480;28;20500;-86
2024/01/11 03:08:32;;;;;;;29.20;17.23;;;;;;;;;;5024094;28;20489;-86
2024/01/11 03:11:01;;;;;;;24.90;16.10;;;;;;;;;;5042779;28;20454;-85
2024/01/11 03:13:29;;;;;;;27.20;16.87;;;;;;;;;;5028636;28;20423;-85
2024/01/11 03:15:58;;;;;;;29.30;18.50;;;;;;;;;;5028022;28;20607;-86
2024/01/11 03:18:26;;;;;;;27.50;16.70;;;;;;;;;;5027217;28;20474;-85
2024/01/11 03:20:55;;;;;;;32.00;16.37;;;;;;;;;;5033010;28;20552;-87
2024/01/11 03:23:34;;;;;;;31.93;17.57;;;;;;;;;;5044615;28;20449;-84
2024/01/11 03:26:02;;;;;;;29.70;16.90;;;;;;;;;;5053274;28;20515;-87
2024/01/11 03:28:29;;;;;;;28.30;17.83;;;;;;;;;;5037612;28;20486;-85
2024/01/11 03:30:57;;;;;;;32.80;17.47;;;;;;;;;;5034574;28;20455;-86
2024/01/11 03:33:25;;;;;;;30.17;17.80;;;;;;;;;;5030218;28;20452;-84
2024/01/11 03:35:54;;;;;;;24.77;17.60;;;;;;;;;;5029943;28;20597;-88
2024/01/11 03:38:24;;;;;;;28.83;17.93;;;;;;;;;;5046864;28;20457;-84
2024/01/11 03:40:51;;;;;;;30.40;17.33;;;;;;;;;;5036320;28;20450;-86
2024/01/11 03:43:19;;;;;;;26.23;16.67;;;;;;;;;;5038196;28;20487;-85
2024/01/11 03:45:46;;;;;;;27.30;16.40;;;;;;;;;;5074481;22;20515;-84
2024/01/11 03:48:14;;;;;;;28.40;19.00;;;;;;;;;;5039852;28;20576;-85
2024/01/11 03:50:42;;;;;;;26.93;16.43;;;;;;;;;;5026719;28;20450;-82
2024/01/11 03:53:13;;;;;;;28.23;16.40;;;;;;;;;;5027383;28;20456;-85
2024/01/11 03:55:41;;;;;;;29.43;16.83;;;;;;;;;;5026170;28;20453;-85
2024/01/11 03:58:12;;;;;;;25.90;16.13;;;;;;;;;;5026140;28;20468;-84
2024/01/11 04:00:39;;;;;;;28.63;17.20;;;;;;;;;;5027787;28;20521;-81
2024/01/11 04:03:08;;;;;;;23.60;16.40;;;;;;;;;;5029399;28;20448;-84
2024/01/11 04:05:36;;;;;;;22.30;16.53;;;;;;;;;;5049715;28;20524;-84
2024/01/11 04:08:05;;;;;;;30.03;16.50;;;;;;;;;;5022599;28;20554;-86
2024/01/11 04:10:33;;;;;;;25.07;16.03;;;;;;;;;;5028665;28;20464;-84
2024/01/11 04:13:01;;;;;;;27.03;15.77;;;;;;;;;;5025583;28;20427;-85
2024/01/11 04:15:31;;;;;;;25.63;15.73;;;;;;;;;;5023521;28;20451;-85
2024/01/11 04:17:58;;;;;;;28.63;14.90;;;;;;;;;;5015227;28;20495;-85
2024/01/11 04:20:26;;;;;;;23.17;14.30;;;;;;;;;;5003572;28;20451;-84
2024/01/11 04:22:54;;;;;;;24.27;15.93;;;;;;;;;;5020674;28;20447;-84
2024/01/11 04:25:23;;;;;;;25.17;16.33;;;;;;;;;;5029996;28;20509;-84
2024/01/11 04:27:53;;;;;;;27.73;16.10;;;;;;;;;;5018882;28;20470;-86
2024/01/11 04:30:21;;;;;;;32.30;18.10;;;;;;;;;;5022011;28;20521;-85
2024/01/11 04:32:51;;;;;;;30.80;17.30;;;;;;;;;;5025470;28;20532;-86
2024/01/11 04:35:19;;;;;;;26.93;14.97;;;;;;;;;;5028915;28;20764;-81
2024/01/11 04:37:50;;;;;;;26.30;15.33;;;;;;;;;;5030159;28;20453;-83
2024/01/11 04:40:18;;;;;;;27.20;16.27;;;;;;;;;;5023830;28;20464;-82
2024/01/11 04:42:47;;;;;;;29.43;15.47;;;;;;;;;;5026493;28;20477;-84
2024/01/11 04:45:14;;;;;;;30.30;16.13;;;;;;;;;;5028712;28;20478;-84
2024/01/11 04:47:42;;;;;;;23.40;15.50;;;;;;;;;;5040230;28;20502;-85
2024/01/11 04:50:12;;;;;;;29.50;17.47;;;;;;;;;;5025755;28;20451;-83
2024/01/11 04:52:40;;;;;;;25.07;15.00;;;;;;;;;;5022323;28;20468;-85
2024/01/11 04:55:07;;;;;;;25.07;15.87;;;;;;;;;;5013871;28;20528;-86
2024/01/11 04:57:35;;;;;;;26.60;16.00;;;;;;;;;;5014989;28;20495;-84
2024/01/11 05:00:02;;;;;;;28.30;16.93;;;;;;;;;;5017660;28;20484;-84
2024/01/11 05:02:30;;;;;;;26.90;16.23;;;;;;;;;;5009806;28;20503;-85
2024/01/11 05:04:59;;;;;;;27.17;16.77;;;;;;;;;;5010235;28;20468;-87
2024/01/11 05:07:27;;;;;;;23.87;14.97;;;;;;;;;;5001652;28;20547;-85
2024/01/11 05:09:57;;;;;;;23.83;14.63;;;;;;;;;;5012200;28;20896;-86
2024/01/11 05:12:26;;;;;;;23.97;15.47;;;;;;;;;;5007114;28;20438;-86
2024/01/11 05:14:56;;;;;;;34.03;15.20;;;;;;;;;;5006328;28;20524;-87
2024/01/11 05:17:27;;;;;;;29.43;15.23;;;;;;;;;;5027716;28;20454;-87
2024/01/11 05:19:55;;;;;;;23.43;14.53;;;;;;;;;;5033172;28;20452;-86
2024/01/11 05:22:22;;;;;;;23.30;15.03;;;;;;;;;;5018488;28;20449;-86
2024/01/11 05:24:50;;;;;;;28.20;16.20;;;;;;;;;;5034622;28;20527;-86
2024/01/11 05:27:17;;;;;;;30.20;18.50;;;;;;;;;;5034285;28;20518;-84
2024/01/11 05:29:45;;;;;;;24.43;16.30;;;;;;;;;;5040527;28;20547;-85
2024/01/11 05:32:15;;;;;;;26.80;15.97;;;;;;;;;;5061441;28;20428;-87
2024/01/11 05:34:45;;;;;;;23.67;15.60;;;;;;;;;;5029303;28;20467;-88
2024/01/11 05:37:13;;;;;;;27.37;15.40;;;;;;;;;;5036088;28;20457;-86
2024/01/11 05:39:44;;;;;;;23.93;15.83;;;;;;;;;;5025317;28;20444;-86
2024/01/11 05:42:12;;;;;;;38.67;18.30;;;;;;;;;;5027791;28;20470;-85
2024/01/11 05:44:39;;;;;;;34.23;18.27;;;;;;;;;;5037627;28;20471;-84
2024/01/11 05:47:10;;;;;;;32.47;17.30;;;;;;;;;;5027677;28;20477;-86
2024/01/11 05:49:37;;;;;;;28.60;17.73;;;;;;;;;;5025867;28;20482;-87
2024/01/11 05:52:08;;;;;;;29.17;18.67;;;;;;;;;;5017299;28;20454;-87
2024/01/11 05:54:35;;;;;;;30.17;17.53;;;;;;;;;;5022630;28;20451;-85
2024/01/11 05:57:03;;;;;;;28.83;17.30;;;;;;;;;;5021909;28;20439;-87
2024/01/11 05:59:30;;;;;;;26.63;18.13;;;;;;;;;;5026697;28;20530;-85
2024/01/11 06:02:00;;;;;;;29.53;17.17;;;;;;;;;;5021346;28;20484;-87
2024/01/11 06:04:27;;;;;;;27.17;16.30;;;;;;;;;;5025673;28;20452;-86
2024/01/11 06:06:57;;;;;;;35.83;18.40;;;;;;;;;;5024677;28;20462;-88
2024/01/11 06:09:26;;;;;;;29.23;16.37;;;;;;;;;;5015823;28;20548;-88
2024/01/11 06:11:53;;;;;;;24.47;16.40;;;;;;;;;;5024805;28;20518;-86
2024/01/11 06:14:21;;;;;;;31.00;16.63;;;;;;;;;;5026232;28;20459;-85
2024/01/11 06:16:49;;;;;;;28.50;18.03;;;;;;;;;;5018591;28;21069;-86
2024/01/11 06:19:17;;;;;;;25.70;16.10;;;;;;;;;;5022028;28;20488;-87
2024/01/11 06:21:47;;;;;;;31.07;16.90;;;;;;;;;;5019648;28;20455;-85
2024/01/11 06:24:15;;;;;;;24.43;15.50;;;;;;;;;;5029681;28;20461;-87
2024/01/11 06:26:45;;;;;;;27.07;16.80;;;;;;;;;;5021682;28;20481;-86
2024/01/11 06:29:13;;;;;;;29.90;17.63;;;;;;;;;;5033313;28;20479;-85
2024/01/11 06:31:40;;;;;;;26.23;16.70;;;;;;;;;;5038510;28;20444;-86
2024/01/11 06:34:08;;;;;;;31.53;17.70;;;;;;;;;;5029707;28;20479;-87
2024/01/11 06:36:36;;;;;;;31.77;18.00;;;;;;;;;;4948942;28;20942;-88
2024/01/11 06:39:08;;;;;;;26.70;18.63;;;;;;;;;;4951737;29;20473;-86
2024/01/11 06:41:38;;;;;;;28.17;17.23;;;;;;;;;;4951736;28;20458;-85
2024/01/11 06:44:05;;;;;;;30.97;17.90;;;;;;;;;;4951028;29;20471;-85
2024/01/11 06:46:33;;;;;;;28.07;17.37;;;;;;;;;;4969041;28;20537;-86
2024/01/11 06:49:00;;;;;;;32.17;17.27;;;;;;;;;;4961011;28;20510;-85
2024/01/11 06:51:28;;;;;;;31.20;16.80;;;;;;;;;;4939505;28;20988;-86
2024/01/11 06:53:55;;;;;;;31.07;17.70;;;;;;;;;;4950385;29;20497;-86
2024/01/11 06:56:22;;;;;;;28.30;16.90;;;;;;;;;;4960482;28;20459;-82
2024/01/11 06:58:50;;;;;;;30.63;17.10;;;;;;;;;;4964403;28;20500;-86
2024/01/11 07:01:17;;;;;;;28.40;17.50;;;;;;;;;;4988212;28;20854;-84
2024/01/11 07:03:53;;;;;;;30.57;15.97;;;;;;;;;;5033292;28;20684;-88
2024/01/11 07:06:32;;;;;;;28.90;17.57;;;;;;;;;;5023490;28;20622;-84
2024/01/11 07:09:02;;;;;;;28.27;17.23;;;;;;;;;;5018134;28;20486;-84
2024/01/11 07:11:46;;;;;;;26.40;16.60;;;;;;;;;;5023796;28;20483;-86
2024/01/11 07:14:16;;;;;;;27.10;17.00;;;;;;;;;;5024848;28;20516;-85
2024/01/11 07:16:43;;;;;;;26.90;17.77;;;;;;;;;;5020562;28;20457;-86
2024/01/11 07:19:17;;;;;;;25.63;15.40;;;;;;;;;;5026034;28;20483;-86
2024/01/11 07:21:47;;;;;;;32.53;17.20;;;;;;;;;;5031259;28;20455;-86
2024/01/11 07:24:18;;;;;;;28.37;15.90;;;;;;;;;;5028750;28;20458;-86
2024/01/11 07:26:45;;;;;;;29.80;17.17;;;;;;;;;;5040431;28;20483;-83
2024/01/11 07:29:13;;;;;;;23.23;14.97;;;;;;;;;;5015411;28;20497;-86
2024/01/11 07:31:41;;;;;;;31.67;17.57;;;;;;;;;;5017263;28;20444;-86
2024/01/11 07:34:15;;;;;;;24.07;16.17;;;;;;;;;;5016336;28;20460;-86
2024/01/11 07:36:42;;;;;;;25.07;18.57;;;;;;;;;;5025095;28;20537;-88
2024/01/11 07:39:10;;;;;;;35.27;17.63;;;;;;;;;;5017576;28;20470;-87
2024/01/11 07:41:37;;;;;;;29.87;17.37;;;;;;;;;;5024386;28;20480;-88
2024/01/11 07:44:04;;;;;;;28.93;17.87;;;;;;;;;;5027388;28;20508;-85
2024/01/11 07:46:32;;;;;;;30.83;16.60;;;;;;;;;;5028379;28;20494;-86
2024/01/11 07:49:04;;;;;;;28.43;17.00;;;;;;;;;;5018872;28;20487;-87
2024/01/11 07:51:32;;;;;;;31.83;18.20;;;;;;;;;;5015988;28;21222;-86
2024/01/11 07:53:59;;;;;;;28.30;16.33;;;;;;;;;;5015487;28;20465;-86
2024/01/11 07:56:26;;;;;;;28.70;15.80;;;;;;;;;;5019376;28;20457;-84
2024/01/11 07:58:53;;;;;;;29.53;16.73;;;;;;;;;;5026810;28;20479;-87
2024/01/11 08:01:21;;;;;;;29.90;17.80;;;;;;;;;;5025533;28;20533;-87
2024/01/11 08:03:51;;;;;;;30.40;18.97;;;;;;;;;;5021423;28;20497;-87
2024/01/11 08:06:20;;;;;;;26.73;17.07;;;;;;;;;;5016948;28;20460;-86
2024/01/11 08:08:51;;;;;;;28.60;18.53;;;;;;;;;;5027185;28;20535;-87
2024/01/11 08:11:19;;;;;;;24.43;17.80;;;;;;;;;;5023145;28;20460;-88
2024/01/11 08:13:47;;;;;;;25.47;17.80;;;;;;;;;;5021376;28;20461;-86
2024/01/11 08:16:19;;;;;;;29.00;16.67;;;;;;;;;;5029398;28;20454;-86
2024/01/11 08:18:48;;;;;;;34.03;17.63;;;;;;;;;;5025822;28;20564;-88
2024/01/11 08:21:15;;;;;;;28.60;16.77;;;;;;;;;;5036600;28;20455;-87
2024/01/11 08:23:48;;;;;;;30.60;18.50;;;;;;;;;;5036261;28;20450;-87
2024/01/11 08:26:21;;;;;;;44.53;18.90;;;;;;;;;;5024434;28;20440;-87
2024/01/11 08:28:53;;;;;;;33.27;18.30;;;;;;;;;;5030422;28;20475;-85
2024/01/11 08:31:21;;;;;;;30.50;17.83;;;;;;;;;;5021688;28;20985;-88
2024/01/11 08:33:48;;;;;;;29.07;17.67;;;;;;;;;;5020865;28;20519;-85
2024/01/11 08:36:15;;;;;;;28.37;17.43;;;;;;;;;;5025791;28;20740;-86
2024/01/11 08:38:45;;;;;;;26.67;16.90;;;;;;;;;;5031594;28;20463;-87
2024/01/11 08:41:15;;;;;;;31.43;17.60;;;;;;;;;;5030106;28;20447;-88
2024/01/11 08:49:46;;;;;;;27.77;17.07;;;;;;;;;;5104123;28;20482;-87
2024/01/11 08:52:13;;;;;;;31.40;18.80;;;;;;;;;;5112999;28;20446;-87
2024/01/11 08:54:40;;;;;;;29.13;19.40;;;;;;;;;;5103053;28;20474;-86
2024/01/11 08:57:08;;;;;;;28.90;16.67;;;;;;;;;;5118475;28;20453;-87
2024/01/11 08:59:35;;;;;;;40.73;17.83;;;;;;;;;;5109533;28;20471;-87
2024/01/11 09:02:05;;;;;;;31.90;20.80;;;;;;;;;;5112732;28;20450;-86
2024/01/11 09:04:39;;;;;;;38.57;20.20;;;;;;;;;;5103019;28;20462;-87
2024/01/11 09:07:08;;;;;;;33.50;20.13;;;;;;;;;;5112636;28;20481;-88
2024/01/11 09:09:35;;;;;;;39.30;21.53;;;;;;;;;;5113059;28;20479;-88
2024/01/11 09:12:07;;;;;;;35.60;21.77;;;;;;;;;;5104286;28;20448;-87
2024/01/11 09:14:35;;;;;;;35.33;21.20;;;;;;;;;;5110981;28;20452;-85
2024/01/11 09:17:02;;;;;;;34.67;19.33;;;;;;;;;;5120247;28;20439;-87
2024/01/11 09:19:29;;;;;;;31.97;19.30;;;;;;;;;;5112469;28;20450;-86
2024/01/11 09:21:57;;;;;;;32.90;20.13;;;;;;;;;;5112844;28;20456;-85
2024/01/11 09:24:25;;;;;;;33.60;18.70;;;;;;;;;;5101889;28;20452;-84
2024/01/11 09:26:55;;;;;;;32.00;19.43;;;;;;;;;;5098913;28;20498;-85
2024/01/11 09:29:22;;;;;;;30.20;18.17;;;;;;;;;;5115840;28;20554;-87
2024/01/11 09:31:49;;;;;;;31.30;19.10;;;;;;;;;;5122763;28;20455;-86
2024/01/11 09:34:17;;;;;;;27.50;18.33;;;;;;;;;;5110382;28;20457;-87
2024/01/11 09:36:49;;;;;;;36.70;20.80;;;;;;;;;;5094696;28;20467;-84
2024/01/11 09:39:17;;;;;;;32.80;18.77;;;;;;;;;;5123694;28;20465;-87
2024/01/11 09:41:52;;;;;;;34.07;22.70;;;;;;;;;;5124338;28;20446;-86
2024/01/11 09:44:19;;;;;;;38.17;21.07;;;;;;;;;;5111445;28;20443;-86
2024/01/11 09:46:47;;;;;;;39.17;22.93;;;;;;;;;;5112399;28;20476;-85
2024/01/11 09:49:17;;;;;;;34.10;21.50;;;;;;;;;;5105163;28;20481;-85
2024/01/11 09:51:50;;;;;;;36.70;20.87;;;;;;;;;;5107339;28;20455;-88
2024/01/11 09:54:22;;;;;;;33.87;19.70;;;;;;;;;;5105475;28;20540;-85
2024/01/11 09:56:53;;;;;;;35.37;21.97;;;;;;;;;;5101676;28;22607;-85
2024/01/11 09:59:24;;;;;;;29.60;19.97;;;;;;;;;;5106684;28;20518;-87
2024/01/11 10:01:52;;;;;;;31.03;19.87;;;;;;;;;;5106050;28;21281;-87
2024/01/11 10:04:24;;;;;;;34.10;21.17;;;;;;;;;;5109029;28;20454;-85
2024/01/11 10:06:52;;;;;;;35.30;19.70;;;;;;;;;;5110746;28;20458;-88
2024/01/11 10:09:22;;;;;;;31.10;21.13;;;;;;;;;;5104658;28;20483;-85
2024/01/11 10:11:51;;;;;;;34.13;21.30;;;;;;;;;;5095928;28;20438;-85
2024/01/11 10:14:23;;;;;;;33.13;20.87;;;;;;;;;;5112876;28;20454;-87
2024/01/11 10:16:50;;;;;;;34.87;21.13;;;;;;;;;;5126951;28;20444;-85
2024/01/11 10:19:21;;;;;;;33.80;21.70;;;;;;;;;;5113911;28;20478;-87
2024/01/11 10:21:49;;;;;;;33.90;20.30;;;;;;;;;;5105634;28;20857;-87
2024/01/11 10:24:20;;;;;;;33.13;21.60;;;;;;;;;;5098510;28;20455;-87
2024/01/11 10:26:51;;;;;;;36.43;22.70;;;;;;;;;;5104916;28;20448;-87
2024/01/11 10:29:19;;;;;;;37.70;21.87;;;;;;;;;;5107571;28;20508;-87
2024/01/11 10:31:47;;;;;;;38.17;20.83;;;;;;;;;;5097050;28;20457;-86
2024/01/11 10:34:15;;;;;;;33.63;21.20;;;;;;;;;;5098546;28;20533;-86
2024/01/11 10:36:43;;;;;;;39.63;22.53;;;;;;;;;;5100174;28;20864;-87
2024/01/11 10:39:10;;;;;;;34.97;21.47;;;;;;;;;;5103744;28;21006;-86
2024/01/11 10:41:43;;;;;;;40.63;22.03;;;;;;;;;;5112922;28;20444;-87
2024/01/11 10:44:19;;;;;;;38.07;23.10;;;;;;;;;;5112943;28;20880;-86
2024/01/11 10:46:47;;;;;;;38.43;23.13;;;;;;;;;;5120496;27;20476;-84
2024/01/11 10:49:17;;;;;;;33.97;20.77;;;;;;;;;;5112173;28;20524;-87
2024/01/11 10:51:59;;;;;;;37.63;21.73;;;;;;;;;;5109843;28;20507;-87
2024/01/11 10:54:27;;;;;;;44.20;24.70;;;;;;;;;;5103754;28;20478;-87
2024/01/11 10:57:04;;;;;;;37.27;22.60;;;;;;;;;;5103510;28;20453;-87
2024/01/11 10:59:32;;;;;;;39.23;21.70;;;;;;;;;;5110223;28;20449;-88
2024/01/11 11:02:06;;;;;;;31.27;21.30;;;;;;;;;;5100756;28;20521;-87
2024/01/11 11:04:34;;;;;;;41.40;22.00;;;;;;;;;;5102359;28;20542;-88
2024/01/11 11:07:02;;;;;;;35.10;20.37;;;;;;;;;;5108781;28;20458;-87
2024/01/11 11:09:31;;;;;;;35.50;19.90;;;;;;;;;;5105862;28;20460;-86
2024/01/11 11:11:59;;;;;;;35.20;21.87;;;;;;;;;;5100124;28;20443;-87
2024/01/11 11:14:27;;;;;;;30.07;20.93;;;;;;;;;;5119758;28;20448;-87
2024/01/11 11:16:54;;;;;;;36.07;20.10;;;;;;;;;;5110216;28;20457;-87
2024/01/11 11:19:22;;;;;;;37.03;22.13;;;;;;;;;;5112489;28;20470;-86
2024/01/11 11:21:50;;;;;;;38.43;22.33;;;;;;;;;;5107773;28;20467;-85
2024/01/11 11:24:18;;;;;;;35.07;22.63;;;;;;;;;;5092097;28;20542;-83
2024/01/11 11:26:46;;;;;;;34.90;21.30;;;;;;;;;;5096404;28;20466;-86
2024/01/11 11:29:15;;;;;;;43.57;22.80;;;;;;;;;;5095576;28;20476;-85
2024/01/11 11:31:47;;;;;;;40.97;23.73;;;;;;;;;;5085727;28;20504;-86
2024/01/11 11:34:16;;;;;;;38.27;23.40;;;;;;;;;;5085585;28;20491;-85
2024/01/11 11:36:46;;;;;;;37.27;24.00;;;;;;;;;;5087217;28;20431;-85
2024/01/11 11:39:14;;;;;;;36.00;21.47;;;;;;;;;;5086425;28;20479;-85
2024/01/11 11:41:42;;;;;;;32.43;22.30;;;;;;;;;;5091446;28;20465;-87
2024/01/11 11:44:16;;;;;;;39.07;23.10;;;;;;;;;;5092452;28;20467;-86
2024/01/11 11:46:45;;;;;;;43.17;22.07;;;;;;;;;;5090065;28;20481;-85
2024/01/11 11:49:13;;;;;;;46.50;24.43;;;;;;;;;;5094444;28;20469;-84
2024/01/11 11:51:41;;;;;;;43.13;23.43;;;;;;;;;;5100516;28;20496;-87
2024/01/11 11:54:14;;;;;;;48.23;27.17;;;;;;;;;;5104758;28;20442;-85
2024/01/11 11:56:41;;;;;;;39.77;25.10;;;;;;;;;;5104981;28;20462;-83
2024/01/11 11:59:09;;;;;;;34.33;21.30;;;;;;;;;;5105082;28;20462;-84
2024/01/11 12:01:38;;;;;;;35.83;21.60;;;;;;;;;;5100281;28;20443;-85
2024/01/11 12:04:05;;;;;;;39.10;21.93;;;;;;;;;;5091932;28;20462;-86
2024/01/11 12:06:34;;;;;;;35.57;20.20;;;;;;;;;;5098021;28;20443;-85
2024/01/11 12:09:01;;;;;;;32.40;21.97;;;;;;;;;;5113505;27;20489;-86
2024/01/11 12:11:29;;;;;;;29.90;20.40;;;;;;;;;;5090599;28;20484;-85
2024/01/11 12:13:58;;;;;;;32.40;20.53;;;;;;;;;;5089893;28;20459;-85
2024/01/11 12:16:28;;;;;;;29.77;20.43;;;;;;;;;;5087140;28;20450;-84
2024/01/11 12:18:55;;;;;;;34.57;20.90;;;;;;;;;;5087300;28;20477;-84
2024/01/11 12:21:23;;;;;;;35.33;19.97;;;;;;;;;;5086576;28;21702;-85
2024/01/11 12:23:51;;;;;;;33.60;21.77;;;;;;;;;;5087835;28;20465;-86
2024/01/11 12:26:21;;;;;;;36.00;20.97;;;;;;;;;;5105866;28;20529;-83
2024/01/11 12:28:50;;;;;;;30.10;19.77;;;;;;;;;;5087931;28;20470;-86
2024/01/11 12:31:19;;;;;;;28.17;19.40;;;;;;;;;;5091707;28;20554;-86
2024/01/11 12:33:47;;;;;;;31.00;19.60;;;;;;;;;;5105834;27;20479;-88
2024/01/11 12:36:15;;;;;;;33.57;21.70;;;;;;;;;;5089543;28;20504;-87
2024/01/11 12:38:49;;;;;;;38.90;20.90;;;;;;;;;;5091908;28;20451;-85
2024/01/11 12:41:18;;;;;;;37.83;22.40;;;;;;;;;;5116170;27;20434;-85
2024/01/11 12:43:45;;;;;;;30.77;20.90;;;;;;;;;;5089819;28;20447;-84
2024/01/11 12:46:12;;;;;;;31.73;19.60;;;;;;;;;;5080340;28;20488;-84
2024/01/11 12:48:40;;;;;;;41.33;22.13;;;;;;;;;;5086118;28;20475;-86
2024/01/11 12:51:08;;;;;;;36.13;19.97;;;;;;;;;;5085022;28;20520;-85
2024/01/11 12:53:39;;;;;;;31.07;20.37;;;;;;;;;;5084711;28;20513;-84
2024/01/11 12:56:11;;;;;;;34.47;23.00;;;;;;;;;;5089615;28;20733;-85
2024/01/11 12:58:38;;;;;;;39.23;23.80;;;;;;;;;;5097464;28;20498;-84
2024/01/11 13:01:09;;;;;;;58.10;25.07;;;;;;;;;;5099223;28;20445;-85
2024/01/11 13:03:44;;;;;;;41.00;23.50;;;;;;;;;;5088988;28;20462;-87
2024/01/11 13:06:11;;;;;;;41.93;22.10;;;;;;;;;;5086141;28;20442;-86
2024/01/11 13:08:40;;;;;;;47.37;22.93;;;;;;;;;;5086407;28;20568;-83
2024/01/11 13:11:07;;;;;;;33.90;22.37;;;;;;;;;;5086335;28;20578;-85
2024/01/11 13:13:35;;;;;;;43.13;24.00;;;;;;;;;;5088814;28;20461;-85
2024/01/11 13:16:08;;;;;;;36.00;22.10;;;;;;;;;;5103846;28;20448;-84
2024/01/11 13:18:35;;;;;;;38.43;23.67;;;;;;;;;;5083852;28;20479;-86
2024/01/11 13:21:02;;;;;;;41.63;23.30;;;;;;;;;;5086752;28;20485;-86
2024/01/11 13:23:31;;;;;;;28.73;19.27;;;;;;;;;;5077810;28;20457;-85
2024/01/11 13:25:58;;;;;;;33.70;20.60;;;;;;;;;;5085611;28;20462;-88
2024/01/11 13:28:26;;;;;;;43.87;23.50;;;;;;;;;;5087172;28;20489;-86
2024/01/11 13:30:54;;;;;;;48.13;22.50;;;;;;;;;;5083273;28;20573;-83
2024/01/11 13:33:23;;;;;;;36.50;21.47;;;;;;;;;;5086407;28;20486;-84
2024/01/11 13:35:50;;;;;;;38.30;22.87;;;;;;;;;;5101869;28;20460;-84
2024/01/11 13:38:18;;;;;;;42.37;22.67;;;;;;;;;;5085491;28;20466;-83
2024/01/11 13:40:47;;;;;;;38.43;22.87;;;;;;;;;;5084844;28;20474;-82
2024/01/11 13:43:14;;;;;;;45.83;22.60;;;;;;;;;;5097830;28;20442;-86
2024/01/11 13:45:41;;;;;;;40.87;26.43;;;;;;;;;;5098197;28;20448;-86
2024/01/11 13:48:09;;;;;;;40.40;23.57;;;;;;;;;;5088975;28;20471;-86
2024/01/11 13:50:37;;;;;;;48.97;24.73;;;;;;;;;;5099059;28;20456;-84
2024/01/11 13:53:04;;;;;;;41.57;23.97;;;;;;;;;;5098034;28;20492;-85
2024/01/11 13:55:37;;;;;;;40.47;23.20;;;;;;;;;;5098651;28;20479;-83
2024/01/11 13:58:05;;;;;;;50.53;26.03;;;;;;;;;;5088055;28;20485;-85
2024/01/11 14:00:35;;;;;;;40.33;23.90;;;;;;;;;;5092887;28;20455;-82
2024/01/11 14:03:04;;;;;;;40.33;22.27;;;;;;;;;;5099259;28;20443;-83
2024/01/11 14:05:32;;;;;;;39.30;24.53;;;;;;;;;;5096055;28;20500;-86
2024/01/11 14:08:01;;;;;;;33.27;21.57;;;;;;;;;;5096062;28;21338;-87
2024/01/11 14:10:29;;;;;;;39.00;22.17;;;;;;;;;;5093283;28;20476;-86
2024/01/11 14:12:56;;;;;;;34.07;22.50;;;;;;;;;;5071438;28;20439;-87
2024/01/11 14:15:24;;;;;;;36.67;20.80;;;;;;;;;;5078950;28;20450;-85
2024/01/11 14:17:51;;;;;;;31.07;21.20;;;;;;;;;;5104850;27;20475;-85
2024/01/11 14:20:22;;;;;;;35.40;21.90;;;;;;;;;;5088494;28;20458;-85
2024/01/11 14:22:51;;;;;;;31.07;20.30;;;;;;;;;;5095031;28;21389;-87
2024/01/11 14:25:19;;;;;;;33.53;22.23;;;;;;;;;;5091739;28;20835;-83
2024/01/11 14:27:47;;;;;;;34.80;20.67;;;;;;;;;;5091403;28;20482;-86
2024/01/11 14:30:14;;;;;;;32.03;19.83;;;;;;;;;;5087592;28;20450;-85